sensor_id;sensor_type;location;lat;lon;timestamp;pressure;altitude;pressure_sealevel;temperature;humidity
5703;BME280;2876;51.738;10.050;2022-11-14T00:04:54;99589.06;;;4.81;100.00
5703;BME280;2876;51.738;10.050;2022-11-14T00:10:56;99577.66;;;5.15;100.00
5703;BME280;2876;51.738;10.050;2022-11-14T00:16:58;99577.41;;;4.74;100.00
5703;BME280;2876;51.738;10.050;2022-11-14T00:23:00;99571.63;;;4.78;100.00
5703;BME280;2876;51.738;10.050;2022-11-14T00:29:02;99559.66;;;5.00;100.00
5703;BME280;2876;51.738;10.050;2022-11-14T00:35:04;99560.94;;;4.96;100.00
5703;BME280;2876;51.738;10.050;2022-11-14T00:41:06;99559.19;;;5.13;100.00
5703;BME280;2876;51.738;10.050;2022-11-14T00:47:08;99550.28;;;4.88;100.00
5703;BME280;2876;51.738;10.050;2022-11-14T00:53:10;99550.78;;;4.92;100.00
5703;BME280;2876;51.738;10.050;2022-11-14T00:59:12;99537.56;;;4.74;100.00
5703;BME280;2876;51.738;10.050;2022-11-14T01:05:14;99539.06;;;4.76;100.00
5703;BME280;2876;51.738;10.050;2022-11-14T01:11:19;99529.25;;;4.69;100.00
5703;BME280;2876;51.738;10.050;2022-11-14T01:17:21;99517.44;;;4.71;100.00
5703;BME280;2876;51.738;10.050;2022-11-14T01:23:23;99528.03;;;4.63;100.00
5703;BME280;2876;51.738;10.050;2022-11-14T01:29:25;99518.97;;;4.74;100.00
5703;BME280;2876;51.738;10.050;2022-11-14T01:35:28;99508.88;;;4.77;100.00
5703;BME280;2876;51.738;10.050;2022-11-14T01:41:30;99499.38;;;4.75;100.00
5703;BME280;2876;51.738;10.050;2022-11-14T01:47:32;99485.47;;;4.81;100.00
5703;BME280;2876;51.738;10.050;2022-11-14T01:53:34;99481.13;;;4.80;100.00
5703;BME280;2876;51.738;10.050;2022-11-14T01:59:41;99475.44;;;4.67;100.00
5703;BME280;2876;51.738;10.050;2022-11-14T02:05:45;99477.06;;;4.94;100.00
5703;BME280;2876;51.738;10.050;2022-11-14T02:11:50;99480.91;;;4.65;100.00
5703;BME280;2876;51.738;10.050;2022-11-14T02:17:54;99455.22;;;4.74;100.00
5703;BME280;2876;51.738;10.050;2022-11-14T02:23:56;99449.03;;;4.65;100.00
5703;BME280;2876;51.738;10.050;2022-11-14T02:30:05;99448.13;;;4.82;100.00
5703;BME280;2876;51.738;10.050;2022-11-14T02:36:08;99438.50;;;4.81;100.00
5703;BME280;2876;51.738;10.050;2022-11-14T02:42:10;99436.94;;;4.71;100.00
5703;BME280;2876;51.738;10.050;2022-11-14T02:48:12;99426.81;;;4.74;100.00
5703;BME280;2876;51.738;10.050;2022-11-14T02:54:14;99423.94;;;4.68;100.00
5703;BME280;2876;51.738;10.050;2022-11-14T03:00:17;99411.72;;;4.75;100.00
5703;BME280;2876;51.738;10.050;2022-11-14T03:06:19;99411.69;;;4.32;100.00
5703;BME280;2876;51.738;10.050;2022-11-14T03:12:21;99405.56;;;4.32;100.00
5703;BME280;2876;51.738;10.050;2022-11-14T03:18:23;99395.81;;;4.15;100.00
5703;BME280;2876;51.738;10.050;2022-11-14T03:24:25;99400.31;;;4.14;100.00
5703;BME280;2876;51.738;10.050;2022-11-14T03:30:26;99399.59;;;4.12;100.00
5703;BME280;2876;51.738;10.050;2022-11-14T03:36:28;99393.88;;;3.73;100.00
5703;BME280;2876;51.738;10.050;2022-11-14T03:42:34;99390.81;;;3.86;100.00
5703;BME280;2876;51.738;10.050;2022-11-14T03:48:36;99395.81;;;3.89;100.00
5703;BME280;2876;51.738;10.050;2022-11-14T03:54:38;99393.41;;;3.77;100.00
5703;BME280;2876;51.738;10.050;2022-11-14T04:00:40;99371.75;;;3.82;100.00
5703;BME280;2876;51.738;10.050;2022-11-14T04:06:42;99378.28;;;3.96;100.00
5703;BME280;2876;51.738;10.050;2022-11-14T04:12:49;99375.84;;;4.02;100.00
5703;BME280;2876;51.738;10.050;2022-11-14T04:18:51;99374.25;;;4.18;100.00
5703;BME280;2876;51.738;10.050;2022-11-14T04:24:53;99359.59;;;4.31;100.00
5703;BME280;2876;51.738;10.050;2022-11-14T04:30:55;99355.50;;;4.45;100.00
5703;BME280;2876;51.738;10.050;2022-11-14T04:36:57;99359.59;;;4.40;100.00
5703;BME280;2876;51.738;10.050;2022-11-14T04:42:59;99351.69;;;4.48;100.00
5703;BME280;2876;51.738;10.050;2022-11-14T04:49:01;99349.50;;;4.43;100.00
5703;BME280;2876;51.738;10.050;2022-11-14T04:55:03;99353.53;;;4.55;100.00
5703;BME280;2876;51.738;10.050;2022-11-14T05:01:09;99344.16;;;4.35;100.00
5703;BME280;2876;51.738;10.050;2022-11-14T05:07:13;99336.44;;;4.50;100.00
5703;BME280;2876;51.738;10.050;2022-11-14T05:13:15;99326.56;;;4.34;100.00
5703;BME280;2876;51.738;10.050;2022-11-14T05:19:17;99312.94;;;4.29;100.00
5703;BME280;2876;51.738;10.050;2022-11-14T05:25:19;99310.16;;;4.39;100.00
5703;BME280;2876;51.738;10.050;2022-11-14T05:31:21;99308.41;;;4.21;100.00
5703;BME280;2876;51.738;10.050;2022-11-14T05:37:23;99296.84;;;4.30;100.00
5703;BME280;2876;51.738;10.050;2022-11-14T05:43:27;99296.44;;;4.09;100.00
5703;BME280;2876;51.738;10.050;2022-11-14T05:49:29;99290.97;;;4.11;100.00
5703;BME280;2876;51.738;10.050;2022-11-14T05:55:31;99304.72;;;4.06;100.00
5703;BME280;2876;51.738;10.050;2022-11-14T06:01:33;99295.72;;;3.99;100.00
5703;BME280;2876;51.738;10.050;2022-11-14T06:07:35;99291.50;;;4.22;100.00
5703;BME280;2876;51.738;10.050;2022-11-14T06:13:38;99292.34;;;3.89;100.00
5703;BME280;2876;51.738;10.050;2022-11-14T06:19:39;99294.22;;;3.96;100.00
5703;BME280;2876;51.738;10.050;2022-11-14T06:25:41;99303.94;;;3.88;100.00
5703;BME280;2876;51.738;10.050;2022-11-14T06:31:43;99297.00;;;3.87;100.00
5703;BME280;2876;51.738;10.050;2022-11-14T06:37:45;99293.63;;;3.50;100.00
5703;BME280;2876;51.738;10.050;2022-11-14T06:43:50;99290.59;;;3.45;100.00
5703;BME280;2876;51.738;10.050;2022-11-14T06:49:53;99301.13;;;3.63;100.00
5703;BME280;2876;51.738;10.050;2022-11-14T07:02:01;99307.31;;;3.64;100.00
5703;BME280;2876;51.738;10.050;2022-11-14T07:08:03;99310.16;;;3.70;100.00
5703;BME280;2876;51.738;10.050;2022-11-14T07:14:05;99300.59;;;3.77;100.00
5703;BME280;2876;51.738;10.050;2022-11-14T07:20:08;99288.16;;;3.78;100.00
5703;BME280;2876;51.738;10.050;2022-11-14T07:26:10;99298.81;;;3.86;100.00
5703;BME280;2876;51.738;10.050;2022-11-14T07:32:13;99308.84;;;4.08;100.00
5703;BME280;2876;51.738;10.050;2022-11-14T07:38:15;99310.56;;;4.18;100.00
5703;BME280;2876;51.738;10.050;2022-11-14T07:44:17;99305.41;;;4.16;100.00
5703;BME280;2876;51.738;10.050;2022-11-14T07:50:18;99313.41;;;4.24;100.00
5703;BME280;2876;51.738;10.050;2022-11-14T07:56:21;99317.84;;;4.16;100.00
5703;BME280;2876;51.738;10.050;2022-11-14T08:02:23;99322.34;;;4.15;100.00
5703;BME280;2876;51.738;10.050;2022-11-14T08:08:25;99314.25;;;4.25;100.00
5703;BME280;2876;51.738;10.050;2022-11-14T08:14:27;99316.63;;;4.02;100.00
5703;BME280;2876;51.738;10.050;2022-11-14T08:20:29;99310.50;;;4.01;100.00
5703;BME280;2876;51.738;10.050;2022-11-14T08:26:31;99307.78;;;3.93;100.00
5703;BME280;2876;51.738;10.050;2022-11-14T08:32:35;99305.97;;;4.28;100.00
5703;BME280;2876;51.738;10.050;2022-11-14T08:38:37;99311.25;;;4.20;100.00
5703;BME280;2876;51.738;10.050;2022-11-14T08:44:39;99288.91;;;4.39;100.00
5703;BME280;2876;51.738;10.050;2022-11-14T08:50:41;99291.81;;;4.70;100.00
5703;BME280;2876;51.738;10.050;2022-11-14T08:56:42;99284.41;;;4.98;100.00
5703;BME280;2876;51.738;10.050;2022-11-14T09:02:44;99280.72;;;4.99;100.00
5703;BME280;2876;51.738;10.050;2022-11-14T09:08:46;99267.63;;;4.97;100.00
5703;BME280;2876;51.738;10.050;2022-11-14T09:14:48;99257.16;;;5.37;100.00
5703;BME280;2876;51.738;10.050;2022-11-14T09:20:50;99254.78;;;5.58;100.00
5703;BME280;2876;51.738;10.050;2022-11-14T09:26:52;99240.25;;;5.85;100.00
5703;BME280;2876;51.738;10.050;2022-11-14T09:33:04;99246.28;;;5.71;99.88
5703;BME280;2876;51.738;10.050;2022-11-14T09:39:12;99240.44;;;5.92;99.88
5703;BME280;2876;51.738;10.050;2022-11-14T09:45:15;99257.19;;;6.00;98.33
5703;BME280;2876;51.738;10.050;2022-11-14T09:51:24;99239.66;;;6.22;97.90
5703;BME280;2876;51.738;10.050;2022-11-14T09:57:29;99258.41;;;6.29;95.15
5703;BME280;2876;51.738;10.050;2022-11-14T10:03:41;99241.56;;;6.37;95.12
5703;BME280;2876;51.738;10.050;2022-11-14T10:10:20;99211.44;;;6.05;95.76
5703;BME280;2876;51.738;10.050;2022-11-14T10:17:40;99206.97;;;5.97;96.10
5703;BME280;2876;51.738;10.050;2022-11-14T10:35:49;99227.31;;;6.21;97.52
5703;BME280;2876;51.738;10.050;2022-11-14T10:41:59;99236.25;;;6.37;98.18
5703;BME280;2876;51.738;10.050;2022-11-14T10:48:16;99231.09;;;6.58;98.01
5703;BME280;2876;51.738;10.050;2022-11-14T10:54:46;99230.66;;;6.77;96.50
5703;BME280;2876;51.738;10.050;2022-11-14T11:00:51;99227.94;;;7.23;95.74
5703;BME280;2876;51.738;10.050;2022-11-14T11:06:56;99213.53;;;7.62;94.38
5703;BME280;2876;51.738;10.050;2022-11-14T11:12:59;99232.59;;;8.18;90.72
5703;BME280;2876;51.738;10.050;2022-11-14T11:19:33;99219.91;;;8.56;87.42
5703;BME280;2876;51.738;10.050;2022-11-14T11:25:38;99223.59;;;8.55;87.11
5703;BME280;2876;51.738;10.050;2022-11-14T11:31:50;99189.47;;;9.00;85.17
5703;BME280;2876;51.738;10.050;2022-11-14T11:37:57;99208.16;;;8.72;85.18
5703;BME280;2876;51.738;10.050;2022-11-14T11:44:06;99196.22;;;8.53;86.19
5703;BME280;2876;51.738;10.050;2022-11-14T11:50:18;99207.06;;;8.45;86.88
5703;BME280;2876;51.738;10.050;2022-11-14T11:56:25;99213.22;;;8.67;87.24
5703;BME280;2876;51.738;10.050;2022-11-14T12:02:30;99214.88;;;8.89;87.29
5703;BME280;2876;51.738;10.050;2022-11-14T12:14:47;99194.34;;;9.46;84.37
5703;BME280;2876;51.738;10.050;2022-11-14T12:33:55;99183.59;;;11.16;79.91
5703;BME280;2876;51.738;10.050;2022-11-14T12:40:04;99178.81;;;11.52;75.40
5703;BME280;2876;51.738;10.050;2022-11-14T12:46:11;99178.44;;;11.15;76.92
5703;BME280;2876;51.738;10.050;2022-11-14T13:05:50;99144.75;;;10.53;78.99
5703;BME280;2876;51.738;10.050;2022-11-14T13:11:55;99140.19;;;10.33;80.59
5703;BME280;2876;51.738;10.050;2022-11-14T13:56:24;99103.66;;;10.26;80.85
5703;BME280;2876;51.738;10.050;2022-11-14T14:09:22;99082.31;;;9.98;82.41
5703;BME280;2876;51.738;10.050;2022-11-14T14:35:39;99075.91;;;9.37;85.12
5703;BME280;2876;51.738;10.050;2022-11-14T14:41:51;99066.28;;;10.04;85.21
5703;BME280;2876;51.738;10.050;2022-11-14T14:48:14;99058.59;;;9.95;82.48
5703;BME280;2876;51.738;10.050;2022-11-14T14:54:27;99055.16;;;9.46;84.25
5703;BME280;2876;51.738;10.050;2022-11-14T15:00:32;99040.47;;;8.94;86.52
5703;BME280;2876;51.738;10.050;2022-11-14T15:06:38;99036.50;;;8.83;87.52
5703;BME280;2876;51.738;10.050;2022-11-14T15:12:40;99022.41;;;8.68;88.05
5703;BME280;2876;51.738;10.050;2022-11-14T15:18:43;99020.00;;;8.30;89.17
5703;BME280;2876;51.738;10.050;2022-11-14T15:31:21;99001.13;;;7.89;91.25
5703;BME280;2876;51.738;10.050;2022-11-14T15:37:23;98993.94;;;7.89;92.10
5703;BME280;2876;51.738;10.050;2022-11-14T15:50:01;98996.06;;;7.36;93.97
5703;BME280;2876;51.738;10.050;2022-11-14T15:56:04;98998.38;;;7.25;94.27
5703;BME280;2876;51.738;10.050;2022-11-14T16:02:26;98999.50;;;7.16;94.40
5703;BME280;2876;51.738;10.050;2022-11-14T16:08:29;98986.66;;;7.04;96.83
5703;BME280;2876;51.738;10.050;2022-11-14T16:14:32;98994.53;;;7.27;96.59
5703;BME280;2876;51.738;10.050;2022-11-14T16:20:34;98990.47;;;7.17;95.90
5703;BME280;2876;51.738;10.050;2022-11-14T16:26:38;98992.31;;;6.57;96.65
5703;BME280;2876;51.738;10.050;2022-11-14T16:32:44;98995.88;;;6.49;96.91
5703;BME280;2876;51.738;10.050;2022-11-14T16:38:49;99000.91;;;6.29;97.08
5703;BME280;2876;51.738;10.050;2022-11-14T16:45:01;99005.00;;;6.17;97.60
5703;BME280;2876;51.738;10.050;2022-11-14T16:51:03;99004.91;;;6.10;98.13
5703;BME280;2876;51.738;10.050;2022-11-14T16:57:25;98990.22;;;6.15;99.41
5703;BME280;2876;51.738;10.050;2022-11-14T17:03:27;98986.91;;;6.13;100.00
5703;BME280;2876;51.738;10.050;2022-11-14T17:09:32;98982.56;;;6.34;100.00
5703;BME280;2876;51.738;10.050;2022-11-14T17:15:34;98992.56;;;6.32;100.00
5703;BME280;2876;51.738;10.050;2022-11-14T17:21:36;98984.31;;;6.42;100.00
5703;BME280;2876;51.738;10.050;2022-11-14T17:27:38;98970.56;;;6.68;100.00
5703;BME280;2876;51.738;10.050;2022-11-14T17:33:40;98973.66;;;6.72;100.00
5703;BME280;2876;51.738;10.050;2022-11-14T17:39:42;98957.69;;;6.72;100.00
5703;BME280;2876;51.738;10.050;2022-11-14T17:45:55;98959.72;;;6.70;100.00
5703;BME280;2876;51.738;10.050;2022-11-14T17:51:57;98949.25;;;6.68;100.00
5703;BME280;2876;51.738;10.050;2022-11-14T17:57:59;98953.63;;;6.76;100.00
5703;BME280;2876;51.738;10.050;2022-11-14T18:04:01;98964.13;;;6.77;100.00
5703;BME280;2876;51.738;10.050;2022-11-14T18:10:07;98956.03;;;6.85;100.00
5703;BME280;2876;51.738;10.050;2022-11-14T18:16:18;98937.53;;;6.99;100.00
5703;BME280;2876;51.738;10.050;2022-11-14T18:22:20;98922.47;;;7.06;100.00
5703;BME280;2876;51.738;10.050;2022-11-14T18:28:22;98915.84;;;7.02;100.00
5703;BME280;2876;51.738;10.050;2022-11-14T18:34:24;98933.38;;;7.11;100.00
5703;BME280;2876;51.738;10.050;2022-11-14T18:40:26;98928.56;;;6.70;100.00
5703;BME280;2876;51.738;10.050;2022-11-14T18:46:28;98928.38;;;6.57;100.00
5703;BME280;2876;51.738;10.050;2022-11-14T18:52:38;98917.25;;;6.53;100.00
5703;BME280;2876;51.738;10.050;2022-11-14T18:58:41;98911.47;;;6.35;100.00
5703;BME280;2876;51.738;10.050;2022-11-14T19:04:44;98909.94;;;6.55;100.00
5703;BME280;2876;51.738;10.050;2022-11-14T19:10:46;98900.94;;;6.42;100.00
5703;BME280;2876;51.738;10.050;2022-11-14T19:16:48;98894.22;;;6.60;100.00
5703;BME280;2876;51.738;10.050;2022-11-14T19:22:50;98876.34;;;6.76;100.00
5703;BME280;2876;51.738;10.050;2022-11-14T19:28:52;98884.34;;;6.91;100.00
5703;BME280;2876;51.738;10.050;2022-11-14T19:35:00;98885.28;;;6.83;100.00
5703;BME280;2876;51.738;10.050;2022-11-14T19:41:16;98888.53;;;6.64;100.00
5703;BME280;2876;51.738;10.050;2022-11-14T19:47:20;98887.66;;;6.78;100.00
5703;BME280;2876;51.738;10.050;2022-11-14T19:53:22;98870.97;;;6.69;100.00
5703;BME280;2876;51.738;10.050;2022-11-14T19:59:24;98888.50;;;6.78;100.00
5703;BME280;2876;51.738;10.050;2022-11-14T20:05:31;98893.91;;;6.70;100.00
5703;BME280;2876;51.738;10.050;2022-11-14T20:11:34;98879.63;;;6.93;100.00
5703;BME280;2876;51.738;10.050;2022-11-14T20:17:36;98884.94;;;6.56;100.00
5703;BME280;2876;51.738;10.050;2022-11-14T20:23:38;98884.56;;;6.59;100.00
5703;BME280;2876;51.738;10.050;2022-11-14T20:29:40;98876.66;;;6.66;100.00
5703;BME280;2876;51.738;10.050;2022-11-14T20:35:42;98879.44;;;7.09;100.00
5703;BME280;2876;51.738;10.050;2022-11-14T20:41:44;98886.16;;;7.05;100.00
5703;BME280;2876;51.738;10.050;2022-11-14T20:47:46;98871.28;;;6.81;100.00
5703;BME280;2876;51.738;10.050;2022-11-14T20:53:51;98876.38;;;6.61;100.00
5703;BME280;2876;51.738;10.050;2022-11-14T20:59:53;98872.59;;;6.70;100.00
5703;BME280;2876;51.738;10.050;2022-11-14T21:05:55;98860.19;;;6.77;100.00
5703;BME280;2876;51.738;10.050;2022-11-14T21:11:57;98872.69;;;6.77;100.00
5703;BME280;2876;51.738;10.050;2022-11-14T21:17:59;98876.44;;;6.82;100.00
5703;BME280;2876;51.738;10.050;2022-11-14T21:24:02;98872.63;;;7.06;100.00
5703;BME280;2876;51.738;10.050;2022-11-14T21:30:05;98876.00;;;7.15;100.00
5703;BME280;2876;51.738;10.050;2022-11-14T21:36:08;98884.53;;;7.47;100.00
5703;BME280;2876;51.738;10.050;2022-11-14T21:42:30;98877.03;;;7.57;100.00
5703;BME280;2876;51.738;10.050;2022-11-14T21:48:38;98884.69;;;7.88;100.00
5703;BME280;2876;51.738;10.050;2022-11-14T21:54:42;98885.16;;;7.98;100.00
5703;BME280;2876;51.738;10.050;2022-11-14T22:00:44;98886.81;;;7.99;100.00
5703;BME280;2876;51.738;10.050;2022-11-14T22:06:46;98896.44;;;8.22;100.00
5703;BME280;2876;51.738;10.050;2022-11-14T22:12:48;98897.06;;;8.24;100.00
5703;BME280;2876;51.738;10.050;2022-11-14T22:18:51;98904.81;;;8.40;100.00
5703;BME280;2876;51.738;10.050;2022-11-14T22:24:53;98898.88;;;8.45;100.00
5703;BME280;2876;51.738;10.050;2022-11-14T22:37:13;98902.34;;;8.73;100.00
5703;BME280;2876;51.738;10.050;2022-11-14T22:43:15;98907.25;;;8.70;100.00
5703;BME280;2876;51.738;10.050;2022-11-14T22:49:22;98890.81;;;8.73;100.00
5703;BME280;2876;51.738;10.050;2022-11-14T22:55:24;98895.09;;;8.67;100.00
5703;BME280;2876;51.738;10.050;2022-11-14T23:01:30;98890.22;;;8.77;100.00
5703;BME280;2876;51.738;10.050;2022-11-14T23:07:32;98890.81;;;8.73;100.00
5703;BME280;2876;51.738;10.050;2022-11-14T23:13:49;98893.56;;;8.99;99.43
5703;BME280;2876;51.738;10.050;2022-11-14T23:19:51;98891.28;;;8.83;99.95
5703;BME280;2876;51.738;10.050;2022-11-14T23:25:53;98887.53;;;8.77;100.00
5703;BME280;2876;51.738;10.050;2022-11-14T23:31:56;98888.91;;;8.60;99.88
5703;BME280;2876;51.738;10.050;2022-11-14T23:38:02;98886.75;;;8.49;99.46
5703;BME280;2876;51.738;10.050;2022-11-14T23:44:05;98877.09;;;8.48;99.72
5703;BME280;2876;51.738;10.050;2022-11-14T23:50:08;98891.94;;;8.50;100.00
5703;BME280;2876;51.738;10.050;2022-11-14T23:56:12;98888.91;;;8.67;100.00
